createdAt,value
2017-02-10T00:00:12.042Z,1026.18
2017-02-10T00:01:12.051Z,1026.16
2017-02-10T00:02:12.062Z,1026.19
2017-02-10T00:03:12.074Z,1026.22
2017-02-10T00:04:12.085Z,1026.17
2017-02-10T00:05:12.096Z,1026.21
2017-02-10T00:06:12.105Z,1026.22
2017-02-10T00:07:12.119Z,1026.16
2017-02-10T00:08:12.129Z,1026.21
2017-02-10T00:09:12.140Z,1026.21
2017-02-10T00:10:12.151Z,1026.19
2017-02-10T00:11:12.163Z,1026.2
2017-02-10T00:12:12.174Z,1026.17
2017-02-10T00:13:12.184Z,1026.23
2017-02-10T00:14:12.201Z,1026.17
2017-02-10T00:15:12.207Z,1026.16
2017-02-10T00:16:12.219Z,1026.17
2017-02-10T00:17:12.230Z,1026.14
2017-02-10T00:18:12.241Z,1026.14
2017-02-10T00:19:12.251Z,1026.18
2017-02-10T00:20:12.263Z,1026.1
2017-02-10T00:21:12.274Z,1026.12
2017-02-10T00:22:12.288Z,1026.11
2017-02-10T00:23:12.295Z,1026.08
2017-02-10T00:24:12.308Z,1026.09
2017-02-10T00:25:12.319Z,1026.04
2017-02-10T00:26:12.331Z,1026.09
2017-02-10T00:27:12.342Z,1026.04
2017-02-10T00:28:12.354Z,1026.04
2017-02-10T00:29:12.364Z,1026.06
2017-02-10T00:30:12.376Z,1026.05
2017-02-10T00:32:12.398Z,1026.02
2017-02-10T00:33:12.411Z,1026.02
2017-02-10T00:34:12.419Z,1026.07
2017-02-10T00:35:12.432Z,1026.07
2017-02-10T00:36:12.443Z,1026.06
2017-02-10T00:37:12.457Z,1026.07
2017-02-10T00:38:12.464Z,1026.04
2017-02-10T00:39:12.476Z,1026.02
2017-02-10T00:40:12.486Z,1026.02
2017-02-10T00:41:12.498Z,1026.01
2017-02-10T00:42:12.509Z,1026.08
2017-02-10T00:43:12.523Z,1026.01
2017-02-10T00:44:12.532Z,1025.98
2017-02-10T00:45:12.543Z,1026.01
2017-02-10T00:46:12.555Z,1026.01
2017-02-10T00:48:12.576Z,1025.96
2017-02-10T00:49:12.587Z,1025.94
2017-02-10T00:50:12.597Z,1025.97
2017-02-10T00:51:12.610Z,1026
2017-02-10T00:52:12.621Z,1026.02
2017-02-10T00:53:12.632Z,1026.01
2017-02-10T00:54:12.642Z,1025.98
2017-02-10T00:55:12.654Z,1026
2017-02-10T00:56:12.665Z,1026.01
2017-02-10T00:57:12.677Z,1026.03
2017-02-10T00:58:12.687Z,1026.01
2017-02-10T00:59:12.699Z,1025.96
2017-02-10T01:00:12.708Z,1025.97
2017-02-10T01:01:12.720Z,1025.96
2017-02-10T01:02:12.732Z,1025.99
2017-02-10T01:04:12.753Z,1025.94
2017-02-10T01:05:12.765Z,1026.05
2017-02-10T01:06:12.776Z,1026.04
2017-02-10T01:07:12.785Z,1025.95
2017-02-10T01:08:12.797Z,1026.01
2017-02-10T01:09:12.807Z,1025.99
2017-02-10T01:10:12.820Z,1026.04
2017-02-10T01:11:12.830Z,1026.04
2017-02-10T01:12:12.841Z,1026
2017-02-10T01:13:12.853Z,1026.01
2017-02-10T01:14:12.915Z,1026.02
2017-02-10T01:15:12.873Z,1026.04
2017-02-10T01:16:12.886Z,1026.03
2017-02-10T01:17:12.897Z,1025.98
2017-02-10T01:18:12.905Z,1026.02
2017-02-10T01:20:12.930Z,1025.95
2017-02-10T01:21:12.941Z,1025.96
2017-02-10T01:22:12.950Z,1026.02
2017-02-10T01:23:12.961Z,1025.95
2017-02-10T01:24:12.973Z,1025.97
2017-02-10T01:25:12.984Z,1025.94
2017-02-10T01:26:12.994Z,1025.95
2017-02-10T01:27:13.056Z,1025.9
2017-02-10T01:28:13.016Z,1025.92
2017-02-10T01:29:13.026Z,1025.88
2017-02-10T01:30:13.039Z,1025.85
2017-02-10T01:31:13.050Z,1025.88
2017-02-10T01:32:13.061Z,1025.87
2017-02-10T01:33:13.073Z,1025.84
2017-02-10T01:35:13.094Z,1025.79
2017-02-10T01:36:13.106Z,1025.75
2017-02-10T01:37:13.120Z,1025.76
2017-02-10T01:38:13.127Z,1025.73
2017-02-10T01:39:13.187Z,1025.71
2017-02-10T01:40:13.149Z,1025.7
2017-02-10T01:41:13.160Z,1025.7
2017-02-10T01:42:13.171Z,1025.72
2017-02-10T01:43:13.181Z,1025.71
2017-02-10T01:44:13.192Z,1025.7
2017-02-10T01:45:13.203Z,1025.69
2017-02-10T01:46:13.214Z,1025.72
2017-02-10T01:47:13.225Z,1025.69
2017-02-10T01:48:13.236Z,1025.66
2017-02-10T01:49:13.246Z,1025.68
2017-02-10T01:50:13.257Z,1025.64
2017-02-10T01:51:13.268Z,1025.62
2017-02-10T01:52:13.279Z,1025.61
2017-02-10T01:53:13.289Z,1025.6
2017-02-10T01:54:13.301Z,1025.63
2017-02-10T01:55:13.310Z,1025.62
2017-02-10T01:56:13.323Z,1025.56
2017-02-10T01:57:13.334Z,1025.57
2017-02-10T01:58:13.345Z,1025.59
2017-02-10T01:59:13.355Z,1025.54
2017-02-10T02:00:13.365Z,1025.56
2017-02-10T02:01:13.376Z,1025.49
2017-02-10T02:02:13.386Z,1025.53
2017-02-10T02:03:13.399Z,1025.51
2017-02-10T02:04:13.409Z,1025.56
2017-02-10T02:05:13.420Z,1025.54
2017-02-10T02:07:14.193Z,1025.48
2017-02-10T02:08:13.452Z,1025.57
2017-02-10T02:09:13.463Z,1025.56
2017-02-10T02:10:13.474Z,1025.54
2017-02-10T02:11:13.486Z,1025.49
2017-02-10T02:12:13.498Z,1025.53
2017-02-10T02:13:13.507Z,1025.51
2017-02-10T02:14:13.517Z,1025.53
2017-02-10T02:15:13.529Z,1025.49
2017-02-10T02:16:13.539Z,1025.48
2017-02-10T02:17:13.551Z,1025.44
2017-02-10T02:18:13.561Z,1025.48
2017-02-10T02:19:13.572Z,1025.46
2017-02-10T02:20:13.582Z,1025.49
2017-02-10T02:21:13.593Z,1025.51
2017-02-10T02:23:13.616Z,1025.47
2017-02-10T02:24:13.624Z,1025.45
2017-02-10T02:25:13.636Z,1025.48
2017-02-10T02:26:13.647Z,1025.46
2017-02-10T02:27:13.657Z,1025.5
2017-02-10T02:28:13.673Z,1025.41
2017-02-10T02:29:13.680Z,1025.44
2017-02-10T02:30:13.690Z,1025.44
2017-02-10T02:31:13.701Z,1025.43
2017-02-10T02:32:13.712Z,1025.47
2017-02-10T02:33:13.723Z,1025.47
2017-02-10T02:34:13.735Z,1025.41
2017-02-10T02:35:13.744Z,1025.43
2017-02-10T02:36:13.755Z,1025.43
2017-02-10T02:37:13.770Z,1025.49
2017-02-10T02:39:13.786Z,1025.45
2017-02-10T02:40:13.799Z,1025.44
2017-02-10T02:41:13.809Z,1025.38
2017-02-10T02:42:13.820Z,1025.41
2017-02-10T02:43:13.830Z,1025.39
2017-02-10T02:44:13.841Z,1025.39
2017-02-10T02:45:13.852Z,1025.41
2017-02-10T02:46:13.864Z,1025.43
2017-02-10T02:47:13.872Z,1025.42
2017-02-10T02:48:13.886Z,1025.38
2017-02-10T02:49:13.893Z,1025.4
2017-02-10T02:50:13.904Z,1025.41
2017-02-10T02:51:13.916Z,1025.37
2017-02-10T02:52:13.927Z,1025.27
2017-02-10T02:53:13.937Z,1025.26
2017-02-10T02:55:13.959Z,1025.27
2017-02-10T02:56:13.970Z,1025.26
2017-02-10T02:57:13.980Z,1025.25
2017-02-10T02:58:13.991Z,1025.28
2017-02-10T02:59:14.003Z,1025.23
2017-02-10T03:00:14.012Z,1025.3
2017-02-10T03:01:14.023Z,1025.23
2017-02-10T03:02:14.034Z,1025.25
2017-02-10T03:03:14.044Z,1025.22
2017-02-10T03:04:14.055Z,1025.17
2017-02-10T03:05:14.066Z,1025.21
2017-02-10T03:06:14.077Z,1025.19
2017-02-10T03:07:14.088Z,1025.17
2017-02-10T03:08:14.099Z,1025.14
2017-02-10T03:10:14.121Z,1025.15
2017-02-10T03:11:14.134Z,1025.09
2017-02-10T03:12:14.141Z,1025.11
2017-02-10T03:13:14.153Z,1025.12
2017-02-10T03:14:14.163Z,1025.15
2017-02-10T03:15:14.177Z,1025.13
2017-02-10T03:16:14.184Z,1025.17
2017-02-10T03:17:14.195Z,1025.2
2017-02-10T03:18:14.205Z,1025.14
2017-02-10T03:19:14.216Z,1025.1
2017-02-10T03:20:14.228Z,1025.07
2017-02-10T03:21:14.238Z,1025.06
2017-02-10T03:22:14.249Z,1025.09
2017-02-10T03:23:14.259Z,1025.13
2017-02-10T03:24:14.269Z,1025.08
2017-02-10T03:25:14.281Z,1025.1
2017-02-10T03:26:14.291Z,1025.11
2017-02-10T03:27:14.301Z,1025.05
2017-02-10T03:28:14.313Z,1025.1
2017-02-10T03:29:14.322Z,1025.07
2017-02-10T03:30:14.332Z,1025.04
2017-02-10T03:31:14.344Z,1025.05
2017-02-10T03:32:14.354Z,1025.04
2017-02-10T03:33:14.365Z,1025.07
2017-02-10T03:34:14.376Z,1024.96
2017-02-10T03:35:14.387Z,1025.03
2017-02-10T03:36:14.397Z,1024.98
2017-02-10T03:37:14.407Z,1024.99
2017-02-10T03:38:14.418Z,1024.95
2017-02-10T03:39:14.429Z,1024.99
2017-02-10T03:40:14.438Z,1024.9
2017-02-10T03:42:14.461Z,1024.93
2017-02-10T03:43:14.472Z,1024.9
2017-02-10T03:44:14.487Z,1024.96
2017-02-10T03:45:14.493Z,1024.93
2017-02-10T03:46:14.504Z,1024.88
2017-02-10T03:47:14.516Z,1024.93
2017-02-10T03:48:14.525Z,1024.91
2017-02-10T03:49:14.535Z,1024.93
2017-02-10T03:50:14.546Z,1024.92
2017-02-10T03:51:14.577Z,1024.89
2017-02-10T03:52:14.567Z,1024.89
2017-02-10T03:53:14.579Z,1024.88
2017-02-10T03:54:14.588Z,1024.88
2017-02-10T03:55:14.598Z,1024.9
2017-02-10T03:56:14.610Z,1024.9
2017-02-10T03:58:14.631Z,1024.85
2017-02-10T03:59:14.642Z,1024.88
2017-02-10T04:00:14.652Z,1024.87
2017-02-10T04:01:14.663Z,1024.8
2017-02-10T04:02:14.674Z,1024.89
2017-02-10T04:03:14.684Z,1024.89
2017-02-10T04:04:14.696Z,1024.85
2017-02-10T04:05:14.706Z,1024.84
2017-02-10T04:06:14.718Z,1024.85
2017-02-10T04:07:14.728Z,1024.79
2017-02-10T04:08:14.738Z,1024.78
2017-02-10T04:09:14.749Z,1024.76
2017-02-10T04:10:14.760Z,1024.73
2017-02-10T04:11:14.771Z,1024.77
2017-02-10T04:12:14.784Z,1024.77
2017-02-10T04:14:14.803Z,1024.81
2017-02-10T04:15:14.813Z,1024.76
2017-02-10T04:16:14.825Z,1024.79
2017-02-10T04:17:14.835Z,1024.77
2017-02-10T04:18:14.846Z,1024.75
2017-02-10T04:19:14.857Z,1024.73
2017-02-10T04:20:14.868Z,1024.75
2017-02-10T04:21:14.878Z,1024.73
2017-02-10T04:22:14.889Z,1024.71
2017-02-10T04:23:14.900Z,1024.73
2017-02-10T04:24:14.909Z,1024.74
2017-02-10T04:25:14.921Z,1024.69
2017-02-10T04:26:14.933Z,1024.65
2017-02-10T04:27:14.943Z,1024.64
2017-02-10T04:28:14.954Z,1024.66
2017-02-10T04:30:14.975Z,1024.72
2017-02-10T04:31:14.987Z,1024.67
2017-02-10T04:32:14.997Z,1024.68
2017-02-10T04:33:15.008Z,1024.67
2017-02-10T04:34:15.019Z,1024.68
2017-02-10T04:35:15.029Z,1024.73
2017-02-10T04:36:15.040Z,1024.59
2017-02-10T04:37:15.051Z,1024.68
2017-02-10T04:38:15.062Z,1024.6
2017-02-10T04:39:15.072Z,1024.67
2017-02-10T04:40:15.083Z,1024.6
2017-02-10T04:41:15.095Z,1024.59
2017-02-10T04:42:15.105Z,1024.55
2017-02-10T04:43:15.121Z,1024.66
2017-02-10T04:45:15.139Z,1024.64
2017-02-10T04:46:15.149Z,1024.58
2017-02-10T04:47:15.160Z,1024.62
2017-02-10T04:48:15.171Z,1024.61
2017-02-10T04:49:15.182Z,1024.61
2017-02-10T04:50:15.192Z,1024.62
2017-02-10T04:51:15.203Z,1024.64
2017-02-10T04:52:15.214Z,1024.58
2017-02-10T04:53:15.224Z,1024.58
2017-02-10T04:54:15.235Z,1024.6
2017-02-10T04:55:15.246Z,1024.62
2017-02-10T04:56:15.257Z,1024.64
2017-02-10T04:57:15.267Z,1024.66
2017-02-10T04:58:15.281Z,1024.68
2017-02-10T04:59:15.289Z,1024.67
2017-02-10T05:00:15.300Z,1024.63
2017-02-10T05:01:15.310Z,1024.65
2017-02-10T05:02:15.320Z,1024.69
2017-02-10T05:03:15.336Z,1024.66
2017-02-10T05:04:15.343Z,1024.65
2017-02-10T05:05:15.353Z,1024.67
2017-02-10T05:06:15.365Z,1024.68
2017-02-10T05:07:15.375Z,1024.67
2017-02-10T05:08:15.385Z,1024.7
2017-02-10T05:09:15.396Z,1024.66
2017-02-10T05:10:15.407Z,1024.71
2017-02-10T05:11:15.419Z,1024.68
2017-02-10T05:12:15.427Z,1024.71
2017-02-10T05:13:15.439Z,1024.69
2017-02-10T05:14:15.450Z,1024.71
2017-02-10T05:15:15.460Z,1024.67
2017-02-10T05:17:15.482Z,1024.61
2017-02-10T05:18:15.493Z,1024.71
2017-02-10T05:19:15.503Z,1024.67
2017-02-10T05:20:15.514Z,1024.68
2017-02-10T05:21:15.525Z,1024.68
2017-02-10T05:22:15.536Z,1024.69
2017-02-10T05:23:15.547Z,1024.68
2017-02-10T05:24:15.557Z,1024.68
2017-02-10T05:25:15.568Z,1024.61
2017-02-10T05:26:15.577Z,1024.63
2017-02-10T05:27:15.588Z,1024.64
2017-02-10T05:28:15.600Z,1024.63
2017-02-10T05:29:15.611Z,1024.69
2017-02-10T05:30:15.621Z,1024.6
2017-02-10T05:31:15.633Z,1024.66
2017-02-10T05:33:15.655Z,1024.67
2017-02-10T05:34:15.664Z,1024.66
2017-02-10T05:35:15.675Z,1024.66
2017-02-10T05:36:15.687Z,1024.67
2017-02-10T05:37:15.696Z,1024.6
2017-02-10T05:38:15.708Z,1024.69
2017-02-10T05:39:15.718Z,1024.73
2017-02-10T05:40:15.729Z,1024.68
2017-02-10T05:41:15.739Z,1024.72
2017-02-10T05:42:15.751Z,1024.68
2017-02-10T05:43:15.761Z,1024.72
2017-02-10T05:44:15.773Z,1024.69
2017-02-10T05:45:15.782Z,1024.64
2017-02-10T05:46:15.793Z,1024.7
2017-02-10T05:47:15.804Z,1024.65
2017-02-10T05:49:15.826Z,1024.66
2017-02-10T05:50:15.837Z,1024.65
2017-02-10T05:51:15.847Z,1024.7
2017-02-10T05:52:15.856Z,1024.7
2017-02-10T05:53:15.868Z,1024.65
2017-02-10T05:54:15.880Z,1024.61
2017-02-10T05:55:15.891Z,1024.64
2017-02-10T05:56:15.901Z,1024.62
2017-02-10T05:57:15.911Z,1024.68
2017-02-10T05:58:15.921Z,1024.61
2017-02-10T05:59:15.934Z,1024.6
2017-02-10T06:00:15.942Z,1024.61
2017-02-10T06:01:15.953Z,1024.68
2017-02-10T06:02:15.965Z,1024.63
2017-02-10T06:03:15.975Z,1024.6
2017-02-10T06:05:15.997Z,1024.58
2017-02-10T06:06:16.007Z,1024.62
2017-02-10T06:07:16.018Z,1024.54
2017-02-10T06:08:16.031Z,1024.58
2017-02-10T06:09:16.039Z,1024.61
2017-02-10T06:10:16.049Z,1024.55
2017-02-10T06:11:16.060Z,1024.58
2017-02-10T06:12:16.070Z,1024.61
2017-02-10T06:13:16.082Z,1024.58
2017-02-10T06:14:16.091Z,1024.61
2017-02-10T06:15:16.103Z,1024.64
2017-02-10T06:16:16.113Z,1024.65
2017-02-10T06:17:16.125Z,1024.64
2017-02-10T06:18:16.136Z,1024.64
2017-02-10T06:20:16.162Z,1024.65
2017-02-10T06:21:16.168Z,1024.68
2017-02-10T06:22:16.179Z,1024.69
2017-02-10T06:23:16.189Z,1024.63
2017-02-10T06:24:16.223Z,1024.7
2017-02-10T06:25:16.212Z,1024.65
2017-02-10T06:26:16.222Z,1024.74
2017-02-10T06:27:16.232Z,1024.72
2017-02-10T06:28:16.242Z,1024.66
2017-02-10T06:29:16.252Z,1024.68
2017-02-10T06:30:16.264Z,1024.72
2017-02-10T06:31:16.276Z,1024.69
2017-02-10T06:32:16.285Z,1024.72
2017-02-10T06:33:16.296Z,1024.73
2017-02-10T06:34:16.306Z,1024.67
2017-02-10T06:35:16.318Z,1024.73
2017-02-10T06:36:16.328Z,1024.72
2017-02-10T06:37:16.339Z,1024.75
2017-02-10T06:38:16.349Z,1024.7
2017-02-10T06:39:16.360Z,1024.76
2017-02-10T06:40:16.370Z,1024.76
2017-02-10T06:41:16.381Z,1024.79
2017-02-10T06:42:16.392Z,1024.79
2017-02-10T06:43:16.402Z,1024.7
2017-02-10T06:44:16.413Z,1024.81
2017-02-10T06:45:16.424Z,1024.8
2017-02-10T06:46:16.434Z,1024.8
2017-02-10T06:47:16.445Z,1024.76
2017-02-10T06:48:16.456Z,1024.76
2017-02-10T06:49:16.467Z,1024.89
2017-02-10T06:50:16.477Z,1024.75
2017-02-10T06:52:16.500Z,1024.76
2017-02-10T06:53:16.510Z,1024.71
2017-02-10T06:54:16.520Z,1024.76
2017-02-10T06:55:16.531Z,1024.75
2017-02-10T06:56:16.546Z,1024.81
2017-02-10T06:57:16.553Z,1024.75
2017-02-10T06:58:16.563Z,1024.74
2017-02-10T06:59:16.573Z,1024.77
2017-02-10T07:00:16.585Z,1024.76
2017-02-10T07:01:16.594Z,1024.74
2017-02-10T07:02:16.606Z,1024.73
2017-02-10T07:03:16.617Z,1024.76
2017-02-10T07:04:16.631Z,1024.77
2017-02-10T07:05:16.638Z,1024.84
2017-02-10T07:06:16.649Z,1024.81
2017-02-10T07:08:16.671Z,1024.77
2017-02-10T07:09:16.681Z,1024.7
2017-02-10T07:10:16.691Z,1024.79
2017-02-10T07:11:16.704Z,1024.73
2017-02-10T07:12:16.763Z,1024.73
2017-02-10T07:13:16.725Z,1024.79
2017-02-10T07:14:16.736Z,1024.76
2017-02-10T07:15:16.747Z,1024.72
2017-02-10T07:16:16.757Z,1024.74
2017-02-10T07:17:16.768Z,1024.69
2017-02-10T07:18:16.779Z,1024.76
2017-02-10T07:19:16.791Z,1024.67
2017-02-10T07:20:16.803Z,1024.72
2017-02-10T07:21:16.812Z,1024.68
2017-02-10T07:22:16.823Z,1024.65
2017-02-10T07:24:16.844Z,1024.67
2017-02-10T07:25:16.854Z,1024.67
2017-02-10T07:26:16.867Z,1024.66
2017-02-10T07:27:16.875Z,1024.63
2017-02-10T07:28:16.888Z,1024.67
2017-02-10T07:29:16.898Z,1024.7
2017-02-10T07:30:16.909Z,1024.73
2017-02-10T07:31:16.920Z,1024.75
2017-02-10T07:32:16.930Z,1024.66
2017-02-10T07:33:16.943Z,1024.7
2017-02-10T07:34:16.952Z,1024.74
2017-02-10T07:35:16.963Z,1024.73
2017-02-10T07:36:16.974Z,1024.79
2017-02-10T07:37:16.986Z,1024.7
2017-02-10T07:38:16.995Z,1024.76
2017-02-10T07:40:17.018Z,1024.74
2017-02-10T07:41:17.030Z,1024.75
2017-02-10T07:42:17.040Z,1024.81
2017-02-10T07:43:17.053Z,1024.75
2017-02-10T07:44:17.063Z,1024.8
2017-02-10T07:45:17.073Z,1024.8
2017-02-10T07:46:17.084Z,1024.77
2017-02-10T07:47:17.096Z,1024.75
2017-02-10T07:48:17.107Z,1024.78
2017-02-10T07:49:17.117Z,1024.79
2017-02-10T07:50:17.128Z,1024.87
2017-02-10T07:51:17.139Z,1024.75
2017-02-10T07:52:17.151Z,1024.73
2017-02-10T07:53:17.162Z,1024.79
2017-02-10T07:55:17.184Z,1024.75
2017-02-10T07:56:17.195Z,1024.71
2017-02-10T07:57:17.207Z,1024.77
2017-02-10T07:58:17.218Z,1024.75
2017-02-10T07:59:17.229Z,1024.76
2017-02-10T08:00:17.238Z,1024.68
2017-02-10T08:01:17.251Z,1024.72
2017-02-10T08:02:17.261Z,1024.73
2017-02-10T08:03:17.273Z,1024.78
2017-02-10T08:04:17.284Z,1024.69
2017-02-10T08:05:17.296Z,1024.75
2017-02-10T08:06:17.307Z,1024.66
2017-02-10T08:07:17.318Z,1024.71
2017-02-10T08:08:17.329Z,1024.69
2017-02-10T08:09:17.340Z,1024.71
2017-02-10T08:10:17.352Z,1024.71
2017-02-10T08:11:17.363Z,1024.68
2017-02-10T08:12:17.374Z,1024.71
2017-02-10T08:13:17.388Z,1024.72
2017-02-10T08:14:17.395Z,1024.64
2017-02-10T08:15:17.407Z,1024.71
2017-02-10T08:16:17.417Z,1024.65
2017-02-10T08:17:17.430Z,1024.74
2017-02-10T08:18:17.440Z,1024.69
2017-02-10T08:19:17.452Z,1024.74
2017-02-10T08:20:17.663Z,1024.71
2017-02-10T08:21:17.474Z,1024.67
2017-02-10T08:22:17.489Z,1024.67
2017-02-10T08:23:17.495Z,1024.7
2017-02-10T08:24:17.508Z,1024.73
2017-02-10T08:25:17.519Z,1024.74
2017-02-10T08:27:17.542Z,1024.7
2017-02-10T08:28:17.553Z,1024.76
2017-02-10T08:29:17.564Z,1024.67
2017-02-10T08:30:17.575Z,1024.67
2017-02-10T08:31:17.587Z,1024.69
2017-02-10T08:32:17.598Z,1024.7
2017-02-10T08:33:17.616Z,1024.69
2017-02-10T08:34:17.620Z,1024.72
2017-02-10T08:35:17.631Z,1024.69
2017-02-10T08:36:17.642Z,1024.65
2017-02-10T08:37:17.654Z,1024.66
2017-02-10T08:38:17.666Z,1024.69
2017-02-10T08:39:17.677Z,1024.61
2017-02-10T08:40:17.690Z,1024.58
2017-02-10T08:41:17.700Z,1024.6
2017-02-10T08:43:17.722Z,1024.68
2017-02-10T08:44:17.734Z,1024.68
2017-02-10T08:45:17.745Z,1024.65
2017-02-10T08:46:17.756Z,1024.73
2017-02-10T08:47:17.768Z,1024.7
2017-02-10T08:48:17.779Z,1024.62
2017-02-10T08:49:17.791Z,1024.62
2017-02-10T08:50:17.803Z,1024.61
2017-02-10T08:51:17.814Z,1024.58
2017-02-10T08:52:17.825Z,1024.63
2017-02-10T08:53:17.836Z,1024.52
2017-02-10T08:54:17.849Z,1024.57
2017-02-10T08:55:17.859Z,1024.67
2017-02-10T08:56:17.871Z,1024.62
2017-02-10T08:57:17.884Z,1024.55
2017-02-10T08:59:17.906Z,1024.66
2017-02-10T09:00:17.919Z,1024.57
2017-02-10T09:01:17.931Z,1024.6
2017-02-10T09:02:17.942Z,1024.58
2017-02-10T09:03:17.954Z,1024.55
2017-02-10T09:04:17.966Z,1024.54
2017-02-10T09:05:17.978Z,1024.5
2017-02-10T09:06:17.988Z,1024.4
2017-02-10T09:07:18.000Z,1024.5
2017-02-10T09:08:18.012Z,1024.48
2017-02-10T09:09:18.023Z,1024.46
2017-02-10T09:10:18.035Z,1024.52
2017-02-10T09:11:18.048Z,1024.51
2017-02-10T09:12:18.059Z,1024.42
2017-02-10T09:13:18.071Z,1024.47
2017-02-10T09:15:18.095Z,1024.47
2017-02-10T09:16:18.107Z,1024.46
2017-02-10T09:17:18.118Z,1024.47
2017-02-10T09:18:18.134Z,1024.45
2017-02-10T09:19:18.143Z,1024.5
2017-02-10T09:20:18.153Z,1024.54
2017-02-10T09:21:18.168Z,1024.49
2017-02-10T09:22:18.177Z,1024.51
2017-02-10T09:23:18.190Z,1024.52
2017-02-10T09:24:18.202Z,1024.46
2017-02-10T09:25:18.214Z,1024.46
2017-02-10T09:26:18.258Z,1024.36
2017-02-10T09:27:18.239Z,1024.43
2017-02-10T09:28:18.247Z,1024.43
2017-02-10T09:30:18.273Z,1024.37
2017-02-10T09:31:18.284Z,1024.33
2017-02-10T09:32:18.295Z,1024.34
2017-02-10T09:33:18.308Z,1024.3
2017-02-10T09:35:26.349Z,1024.42
2017-02-10T09:36:26.357Z,1024.4
2017-02-10T09:37:26.364Z,1024.41
2017-02-10T09:38:26.371Z,1024.34
2017-02-10T09:39:26.388Z,1024.38
2017-02-10T09:40:26.397Z,1024.39
2017-02-10T09:41:26.423Z,1024.35
2017-02-10T09:42:26.433Z,1024.38
2017-02-10T09:43:26.442Z,1024.43
2017-02-10T09:44:26.455Z,1024.46
2017-02-10T09:45:26.466Z,1024.32
2017-02-10T09:46:26.477Z,1024.43
2017-02-10T09:47:26.493Z,1024.4
2017-02-10T09:48:26.504Z,1024.45
2017-02-10T09:49:26.518Z,1024.45
2017-02-10T09:51:26.547Z,1024.48
2017-02-10T09:52:26.558Z,1024.52
2017-02-10T09:53:26.567Z,1024.57
2017-02-10T09:54:26.580Z,1024.42
2017-02-10T09:55:26.593Z,1024.41
2017-02-10T09:56:26.608Z,1024.48
2017-02-10T09:57:26.619Z,1024.49
2017-02-10T09:58:26.635Z,1024.49
2017-02-10T09:59:26.649Z,1024.43
2017-02-10T10:00:26.662Z,1024.47
2017-02-10T10:01:26.676Z,1024.51
2017-02-10T10:02:26.688Z,1024.54
2017-02-10T10:03:26.702Z,1024.43
2017-02-10T10:04:26.714Z,1024.44
2017-02-10T10:05:26.729Z,1024.48
2017-02-10T10:07:26.756Z,1024.42
2017-02-10T10:08:26.771Z,1024.42
2017-02-10T10:09:26.784Z,1024.48
2017-02-10T10:10:26.794Z,1024.44
2017-02-10T10:11:26.804Z,1024.4
2017-02-10T10:12:26.818Z,1024.4
2017-02-10T10:13:26.839Z,1024.4
2017-02-10T10:14:26.844Z,1024.47
2017-02-10T10:15:26.862Z,1024.48
2017-02-10T10:16:26.876Z,1024.44
2017-02-10T10:17:26.887Z,1024.38
2017-02-10T10:18:26.898Z,1024.12
2017-02-10T10:19:26.914Z,1024.38
2017-02-10T10:20:26.929Z,1024.33
2017-02-10T10:21:26.965Z,1024.35
2017-02-10T10:23:26.971Z,1024.28
2017-02-10T10:24:26.983Z,1024.27
2017-02-10T10:25:26.996Z,1024.18
2017-02-10T10:26:27.008Z,1024.21
2017-02-10T10:27:27.024Z,1024.27
2017-02-10T10:28:27.036Z,1024.24
2017-02-10T10:29:27.049Z,1024.29
2017-02-10T10:30:27.064Z,1024.19
2017-02-10T10:31:27.075Z,1024.32
2017-02-10T10:32:27.089Z,1024.21
2017-02-10T10:33:27.104Z,1024.15
2017-02-10T10:34:27.119Z,1024.19
2017-02-10T10:35:27.132Z,1024.19
2017-02-10T10:36:27.145Z,1024.23
2017-02-10T10:38:27.177Z,1024.19
2017-02-10T10:39:27.188Z,1024.13
2017-02-10T10:40:27.203Z,1024.09
2017-02-10T10:41:27.215Z,1024.17
2017-02-10T10:42:27.228Z,1024.1
2017-02-10T10:43:27.241Z,1024.11
2017-02-10T10:44:27.257Z,1024.12
2017-02-10T10:45:27.265Z,1024.11
2017-02-10T10:46:27.283Z,1024.1
2017-02-10T10:47:27.294Z,1024.11
2017-02-10T10:48:27.305Z,1024.07
2017-02-10T10:49:27.323Z,1024.11
2017-02-10T10:50:27.332Z,1024.02
2017-02-10T10:51:27.350Z,1024
2017-02-10T10:52:27.360Z,1024.02
2017-02-10T10:53:27.378Z,1024
2017-02-10T10:54:27.389Z,1024.05
2017-02-10T10:55:27.405Z,1024
2017-02-10T10:56:27.419Z,1024.04
2017-02-10T10:57:27.430Z,1023.9
2017-02-10T10:58:27.443Z,1023.97
2017-02-10T10:59:27.456Z,1023.87
2017-02-10T11:00:27.472Z,1023.82
2017-02-10T11:01:27.481Z,1023.84
2017-02-10T11:02:27.496Z,1023.81
2017-02-10T11:03:27.509Z,1023.72
2017-02-10T11:04:27.526Z,1023.73
2017-02-10T11:05:27.538Z,1023.78
2017-02-10T11:06:27.552Z,1023.76
2017-02-10T11:07:27.565Z,1023.78
2017-02-10T11:08:27.581Z,1023.73
2017-02-10T11:10:27.606Z,1023.77
2017-02-10T11:11:27.622Z,1023.71
2017-02-10T11:12:27.633Z,1023.67
2017-02-10T11:13:27.648Z,1023.63
2017-02-10T11:14:27.660Z,1023.64
2017-02-10T11:15:27.673Z,1023.72
2017-02-10T11:16:27.684Z,1023.76
2017-02-10T11:17:27.702Z,1023.76
2017-02-10T11:18:27.716Z,1023.73
2017-02-10T11:19:27.728Z,1023.72
2017-02-10T11:20:27.742Z,1023.75
2017-02-10T11:21:27.753Z,1023.83
2017-02-10T11:22:27.771Z,1023.84
2017-02-10T11:23:27.780Z,1023.81
2017-02-10T11:24:27.796Z,1023.81
2017-02-10T11:26:27.825Z,1023.86
2017-02-10T11:27:27.835Z,1023.92
2017-02-10T11:28:27.850Z,1023.79
2017-02-10T11:29:27.865Z,1023.86
2017-02-10T11:30:27.878Z,1023.79
2017-02-10T11:31:27.889Z,1023.78
2017-02-10T11:32:27.905Z,1023.82
2017-02-10T11:33:27.917Z,1023.81
2017-02-10T11:34:27.934Z,1023.8
2017-02-10T11:35:27.944Z,1023.74
2017-02-10T11:36:27.962Z,1023.7
2017-02-10T11:37:27.975Z,1023.65
2017-02-10T11:38:27.984Z,1023.69
2017-02-10T11:39:28.003Z,1023.68
2017-02-10T11:40:28.012Z,1023.62
2017-02-10T11:42:28.041Z,1023.65
2017-02-10T11:43:28.056Z,1023.57
2017-02-10T11:44:28.069Z,1023.62
2017-02-10T11:45:28.083Z,1023.59
2017-02-10T11:46:28.099Z,1023.54
2017-02-10T11:47:28.113Z,1023.57
2017-02-10T11:48:28.126Z,1023.59
2017-02-10T11:49:28.135Z,1023.56
2017-02-10T11:50:28.153Z,1023.57
2017-02-10T11:51:28.164Z,1023.62
2017-02-10T11:52:28.179Z,1023.63
2017-02-10T11:53:28.191Z,1023.6
2017-02-10T11:54:28.209Z,1023.57
2017-02-10T11:55:28.227Z,1023.59
2017-02-10T11:56:28.235Z,1023.6
2017-02-10T11:58:28.262Z,1023.63
2017-02-10T11:59:28.276Z,1023.58
2017-02-10T12:00:28.291Z,1023.63
2017-02-10T12:01:28.302Z,1023.62
2017-02-10T12:02:28.316Z,1023.59
2017-02-10T12:03:28.331Z,1023.62
2017-02-10T12:04:28.346Z,1023.59
2017-02-10T12:05:28.360Z,1023.55
2017-02-10T12:06:28.370Z,1023.46
2017-02-10T12:07:28.386Z,1023.53
2017-02-10T12:08:28.401Z,1023.52
2017-02-10T12:09:28.617Z,1023.43
2017-02-10T12:10:28.426Z,1023.43
2017-02-10T12:11:28.444Z,1023.39
2017-02-10T12:13:28.468Z,1023.35
2017-02-10T12:14:28.484Z,1023.41
2017-02-10T12:15:28.499Z,1023.37
2017-02-10T12:16:28.514Z,1023.4
2017-02-10T12:17:28.527Z,1023.36
2017-02-10T12:18:28.538Z,1023.29
2017-02-10T12:19:28.555Z,1023.29
2017-02-10T12:20:28.568Z,1023.37
2017-02-10T12:21:28.583Z,1023.41
2017-02-10T12:22:28.595Z,1023.37
2017-02-10T12:23:28.613Z,1023.34
2017-02-10T12:24:28.623Z,1023.35
2017-02-10T12:25:28.639Z,1023.35
2017-02-10T12:26:28.650Z,1023.33
2017-02-10T12:27:28.666Z,1023.28
2017-02-10T12:28:28.680Z,1023.26
2017-02-10T12:29:28.692Z,1023.31
2017-02-10T12:30:28.705Z,1023.28
2017-02-10T12:31:28.719Z,1023.19
2017-02-10T12:32:28.734Z,1023.08
2017-02-10T12:33:28.751Z,1023.13
2017-02-10T12:34:28.760Z,1023.17
2017-02-10T12:35:28.778Z,1023.14
2017-02-10T12:36:28.790Z,1023.13
2017-02-10T12:37:28.825Z,1023.13
2017-02-10T12:38:28.817Z,1023.07
2017-02-10T12:39:28.834Z,1023.01
2017-02-10T12:40:28.844Z,1023.01
2017-02-10T12:41:28.861Z,1022.93
2017-02-10T12:42:28.874Z,1022.92
2017-02-10T12:43:28.887Z,1022.89
2017-02-10T12:45:28.917Z,1022.92
2017-02-10T12:46:28.928Z,1022.93
2017-02-10T12:47:28.945Z,1022.9
2017-02-10T12:48:28.958Z,1023.01
2017-02-10T12:49:28.973Z,1022.9